Time;durP1;ratioP1;P1;durP2;ratioP2;P2;SDS_P1;SDS_P2;PMS_P1;PMS_P2;Temp;Humidity;BMP_temperature;BMP_pressure;BME280_temperature;BME280_humidity;BME280_pressure;Samples;Min_cycle;Max_cycle;Signal;HPM_P1;HPM_P2
2022/06/24 00:00:39;;;;;;;5.18;1.85;;;19.60;99.90;;;;;;4934147;29;20559;-78
2022/06/24 00:03:06;;;;;;;3.25;1.42;;;19.60;99.90;;;;;;4933847;29;20044;-78
2022/06/24 00:05:34;;;;;;;3.90;1.58;;;19.60;99.90;;;;;;4933992;29;20040;-79
2022/06/24 00:08:00;;;;;;;6.30;1.88;;;19.60;99.90;;;;;;4933800;29;20071;-78
2022/06/24 00:10:32;;;;;;;4.15;1.52;;;19.60;99.90;;;;;;4933649;29;20059;-78
2022/06/24 00:12:58;;;;;;;4.95;1.52;;;19.50;99.90;;;;;;4933815;29;20032;-78
2022/06/24 00:15:25;;;;;;;4.13;1.50;;;19.60;99.90;;;;;;4933653;29;20028;-78
2022/06/24 00:17:51;;;;;;;4.47;1.30;;;19.50;99.90;;;;;;4933694;29;20051;-78
2022/06/24 00:20:18;;;;;;;3.67;0.98;;;19.60;99.90;;;;;;4933610;29;20512;-78
2022/06/24 00:22:46;;;;;;;3.60;1.10;;;19.50;99.90;;;;;;4933612;29;20067;-78
2022/06/24 00:25:17;;;;;;;3.63;1.00;;;19.50;99.90;;;;;;4933806;29;20031;-78
2022/06/24 00:27:57;;;;;;;3.47;0.90;;;19.40;99.90;;;;;;4933519;29;20027;-78
2022/06/24 00:30:23;;;;;;;3.97;1.40;;;19.50;99.90;;;;;;4933285;29;20116;-78
2022/06/24 00:32:48;;;;;;;4.10;0.95;;;19.50;99.90;;;;;;4933130;29;20616;-78
2022/06/24 00:35:18;;;;;;;4.10;0.70;;;19.50;99.90;;;;;;4933163;29;20036;-78
2022/06/24 00:37:45;;;;;;;3.28;0.70;;;19.60;99.90;;;;;;4933339;29;20499;-78
2022/06/24 00:40:11;;;;;;;3.38;0.65;;;19.70;99.90;;;;;;4933683;29;20032;-78
2022/06/24 00:42:38;;;;;;;1.58;0.60;;;19.70;99.90;;;;;;4933069;29;20042;-78
2022/06/24 00:45:13;;;;;;;1.77;0.70;;;19.70;99.90;;;;;;4933243;29;20031;-78
2022/06/24 00:47:41;;;;;;;1.52;0.77;;;19.70;99.90;;;;;;4932736;29;20399;-78
2022/06/24 00:50:23;;;;;;;3.17;0.75;;;19.70;99.90;;;;;;4933032;29;20099;-78
2022/06/24 00:52:51;;;;;;;2.75;1.00;;;19.70;99.90;;;;;;4932889;29;20027;-78
2022/06/24 00:55:24;;;;;;;4.28;0.68;;;19.70;99.90;;;;;;4933094;29;20038;-78
2022/06/24 00:57:49;;;;;;;3.35;0.90;;;19.60;99.90;;;;;;4931591;29;20032;-78
2022/06/24 01:00:16;;;;;;;2.35;0.70;;;19.70;99.90;;;;;;4933012;29;20523;-78
2022/06/24 01:02:42;;;;;;;3.10;0.77;;;19.70;99.90;;;;;;4932499;29;20560;-78
2022/06/24 01:05:09;;;;;;;6.00;0.95;;;19.70;99.90;;;;;;4933247;29;20051;-78
2022/06/24 01:07:41;;;;;;;3.97;0.93;;;19.70;99.90;;;;;;4934333;29;20035;-78
2022/06/24 01:10:08;;;;;;;1.50;0.70;;;19.50;99.90;;;;;;4932580;29;20028;-78
2022/06/24 01:12:35;;;;;;;2.60;0.88;;;19.50;99.90;;;;;;4931331;29;20034;-78
2022/06/24 01:15:05;;;;;;;1.60;0.70;;;19.40;99.90;;;;;;4932446;29;20249;-78
2022/06/24 01:17:31;;;;;;;4.15;1.10;;;19.40;99.90;;;;;;4932400;29;20032;-78
2022/06/24 01:19:57;;;;;;;3.78;1.13;;;19.40;99.90;;;;;;4932730;29;20031;-78
2022/06/24 01:22:24;;;;;;;2.65;0.90;;;19.40;99.90;;;;;;4932601;29;20055;-78
2022/06/24 01:24:51;;;;;;;2.50;0.80;;;19.30;99.90;;;;;;4932705;29;20023;-78
2022/06/24 01:27:17;;;;;;;2.35;1.00;;;19.40;99.90;;;;;;4932466;29;20480;-78
2022/06/24 01:29:44;;;;;;;2.63;0.90;;;19.30;99.90;;;;;;4932963;29;20063;-78
2022/06/24 01:32:09;;;;;;;2.50;0.88;;;19.30;99.90;;;;;;4932283;29;20420;-78
2022/06/24 01:34:35;;;;;;;2.47;1.00;;;19.30;99.90;;;;;;4932442;29;20032;-78
2022/06/24 01:37:02;;;;;;;5.10;1.20;;;19.20;99.90;;;;;;4932717;29;20034;-78
2022/06/24 01:39:27;;;;;;;3.00;0.90;;;19.30;99.90;;;;;;4932437;29;20023;-78
2022/06/24 01:41:53;;;;;;;3.33;1.13;;;19.40;99.90;;;;;;4932519;29;20079;-78
2022/06/24 01:44:19;;;;;;;6.22;1.10;;;19.40;99.90;;;;;;4932353;29;20032;-78
2022/06/24 01:46:45;;;;;;;5.80;1.30;;;19.40;99.90;;;;;;4932653;29;20179;-78
2022/06/24 01:49:11;;;;;;;4.38;0.90;;;19.50;99.90;;;;;;4932342;29;20048;-78
2022/06/24 01:51:40;;;;;;;4.03;1.35;;;19.50;99.90;;;;;;4932187;29;20034;-78
2022/06/24 01:54:05;;;;;;;3.35;1.10;;;19.50;99.90;;;;;;4932325;29;20038;-78
2022/06/24 01:56:32;;;;;;;5.13;1.00;;;19.50;99.90;;;;;;4931961;29;20019;-78
2022/06/24 01:58:57;;;;;;;5.50;1.20;;;19.50;99.90;;;;;;4932330;29;20059;-78
2022/06/24 02:01:23;;;;;;;3.17;1.17;;;19.50;99.90;;;;;;4931924;29;20078;-78
2022/06/24 02:03:49;;;;;;;5.45;1.75;;;19.50;99.90;;;;;;4932523;29;20020;-78
2022/06/24 02:06:15;;;;;;;7.10;1.80;;;19.50;99.90;;;;;;4932331;29;20028;-78
2022/06/24 02:08:41;;;;;;;5.93;1.75;;;19.50;99.90;;;;;;4932316;29;20031;-78
2022/06/24 02:13:55;;;;;;;6.10;2.13;;;19.50;99.90;;;;;;4932373;29;20082;-78
2022/06/24 02:16:21;;;;;;;5.95;2.55;;;19.40;99.90;;;;;;4934666;29;20028;-78
2022/06/24 02:18:47;;;;;;;9.48;2.92;;;19.40;99.90;;;;;;4935967;29;20461;-78
2022/06/24 02:21:14;;;;;;;9.82;2.60;;;19.30;99.90;;;;;;4935927;29;20024;-78
2022/06/24 02:23:40;;;;;;;7.40;2.42;;;19.30;99.90;;;;;;4935481;29;20454;-78
2022/06/24 02:26:06;;;;;;;11.02;2.45;;;19.30;99.90;;;;;;4935761;29;20031;-78
2022/06/24 02:28:31;;;;;;;7.88;2.67;;;19.40;99.90;;;;;;4935691;29;20031;-78
2022/06/24 02:30:59;;;;;;;7.28;2.78;;;19.40;99.90;;;;;;4935507;29;20027;-78
2022/06/24 02:33:26;;;;;;;9.25;2.55;;;19.50;99.90;;;;;;4935683;29;20024;-78
2022/06/24 02:35:52;;;;;;;9.32;2.90;;;19.50;99.90;;;;;;4935377;29;20547;-78
2022/06/24 02:38:18;;;;;;;7.93;2.75;;;19.50;99.90;;;;;;4935266;29;20121;-78
2022/06/24 02:40:51;;;;;;;9.60;3.03;;;19.50;99.90;;;;;;4929174;29;20036;-77
2022/06/24 02:43:32;;;;;;;13.48;3.58;;;19.50;99.90;;;;;;4935357;29;20027;-77
2022/06/24 02:46:06;;;;;;;12.18;3.30;;;19.50;99.90;;;;;;4935145;29;20027;-78
2022/06/24 02:48:34;;;;;;;13.70;3.50;;;19.40;99.90;;;;;;4935409;29;20118;-78
2022/06/24 02:51:02;;;;;;;10.57;3.03;;;19.30;99.90;;;;;;4935346;29;20126;-78
2022/06/24 02:53:29;;;;;;;11.32;3.60;;;19.20;99.90;;;;;;4935231;29;20079;-78
2022/06/24 02:56:15;;;;;;;16.63;3.20;;;19.30;99.90;;;;;;4935158;29;20499;-78
2022/06/24 02:58:42;;;;;;;11.95;3.00;;;19.30;99.90;;;;;;4934707;29;20098;-78
2022/06/24 03:01:08;;;;;;;14.70;3.30;;;19.30;99.90;;;;;;4934893;29;20523;-78
2022/06/24 03:03:34;;;;;;;13.23;4.13;;;19.20;99.90;;;;;;4928769;29;20040;-78
2022/06/24 03:06:00;;;;;;;9.93;3.42;;;19.20;99.90;;;;;;4935338;29;20185;-78
2022/06/24 03:08:27;;;;;;;15.93;6.03;;;19.20;99.90;;;;;;4934821;29;20404;-78
2022/06/24 03:10:53;;;;;;;15.27;4.50;;;19.10;99.90;;;;;;4934926;29;20016;-78
2022/06/24 03:13:19;;;;;;;10.15;3.30;;;19.10;99.90;;;;;;4934837;29;20064;-78
2022/06/24 03:15:45;;;;;;;13.02;3.55;;;19.00;99.90;;;;;;4934369;29;20026;-78
2022/06/24 03:18:13;;;;;;;10.07;3.10;;;19.10;99.90;;;;;;4934477;29;20055;-78
2022/06/24 03:20:40;;;;;;;10.50;3.50;;;19.00;99.90;;;;;;4934684;29;20095;-78
2022/06/24 03:23:06;;;;;;;12.07;3.53;;;19.10;99.90;;;;;;4934666;29;20488;-78
2022/06/24 03:25:31;;;;;;;11.95;3.20;;;19.10;99.90;;;;;;4934495;29;20138;-78
2022/06/24 03:27:57;;;;;;;11.13;3.10;;;19.10;99.90;;;;;;4934686;29;20388;-78
2022/06/24 03:30:23;;;;;;;12.10;3.20;;;19.10;99.90;;;;;;4934473;29;20024;-78
2022/06/24 03:32:48;;;;;;;14.82;3.08;;;19.10;99.90;;;;;;4934395;29;20028;-78
2022/06/24 03:35:14;;;;;;;12.88;4.40;;;19.20;99.90;;;;;;4934491;29;20040;-78
2022/06/24 03:37:40;;;;;;;12.27;3.33;;;19.20;99.90;;;;;;4935666;29;20020;-78
2022/06/24 03:40:06;;;;;;;15.48;3.63;;;19.20;99.90;;;;;;4928175;29;20035;-78
2022/06/24 03:42:32;;;;;;;14.13;3.47;;;19.20;99.90;;;;;;4935142;29;20016;-78
2022/06/24 03:44:57;;;;;;;12.13;3.53;;;19.20;99.90;;;;;;4934279;29;20027;-78
2022/06/24 03:47:23;;;;;;;14.10;3.58;;;19.20;99.90;;;;;;4934028;29;20500;-78
2022/06/24 03:49:51;;;;;;;15.10;3.20;;;19.20;99.90;;;;;;4933883;29;20044;-78
2022/06/24 03:52:17;;;;;;;9.48;3.65;;;19.20;99.90;;;;;;4934062;29;20020;-78
2022/06/24 03:54:43;;;;;;;15.13;4.20;;;19.20;99.90;;;;;;4933902;29;20035;-78
2022/06/24 03:57:08;;;;;;;20.50;5.28;;;19.20;99.90;;;;;;4934590;29;20604;-80
2022/06/24 03:59:34;;;;;;;19.73;7.00;;;19.20;99.90;;;;;;4933616;29;20044;-79
2022/06/24 04:01:59;;;;;;;22.70;7.22;;;18.80;99.90;;;;;;4933696;29;20036;-80
2022/06/24 04:04:25;;;;;;;24.73;8.05;;;18.40;99.90;;;;;;4934133;29;20406;-79
2022/06/24 04:06:51;;;;;;;29.15;7.65;;;18.20;99.90;;;;;;4933948;29;20027;-78
2022/06/24 04:09:16;;;;;;;32.72;9.35;;;18.10;99.90;;;;;;4933675;29;20028;-78
2022/06/24 04:11:42;;;;;;;36.05;9.25;;;17.90;99.90;;;;;;4933645;29;20023;-78
2022/06/24 04:14:08;;;;;;;24.73;9.27;;;17.90;99.90;;;;;;4933696;29;20665;-78
2022/06/24 04:16:34;;;;;;;24.13;9.55;;;17.80;99.90;;;;;;4933444;29;20110;-78
2022/06/24 04:19:00;;;;;;;27.08;10.13;;;17.90;99.90;;;;;;4933461;29;20030;-79
2022/06/24 04:21:26;;;;;;;26.10;10.68;;;17.90;99.90;;;;;;4933445;29;20023;-79
2022/06/24 04:23:52;;;;;;;26.80;11.48;;;17.90;99.90;;;;;;4933469;29;20118;-79
2022/06/24 04:26:20;;;;;;;23.23;10.88;;;17.90;99.90;;;;;;4933372;29;20509;-79
2022/06/24 04:28:46;;;;;;;29.13;12.55;;;17.90;99.90;;;;;;4933608;29;20015;-79
2022/06/24 04:31:13;;;;;;;32.58;13.07;;;17.90;99.90;;;;;;4933610;29;20300;-80
2022/06/24 04:33:39;;;;;;;21.92;11.93;;;18.00;99.90;;;;;;4933284;29;20027;-80
2022/06/24 04:36:14;;;;;;;18.77;9.43;;;18.00;99.90;;;;;;4933524;29;20079;-80
2022/06/24 04:38:41;;;;;;;16.58;7.65;;;18.10;99.90;;;;;;4932460;29;20024;-80
2022/06/24 04:41:11;;;;;;;22.95;8.23;;;18.10;99.90;;;;;;4927468;29;20520;-80
2022/06/24 04:43:37;;;;;;;18.33;9.20;;;18.10;99.90;;;;;;4933243;29;20039;-80
2022/06/24 04:46:06;;;;;;;22.70;9.40;;;18.00;99.90;;;;;;4933161;29;20056;-80
2022/06/24 04:48:31;;;;;;;21.05;9.10;;;18.00;99.90;;;;;;4933013;29;20051;-80
2022/06/24 04:50:57;;;;;;;18.48;8.95;;;18.10;99.90;;;;;;4933538;29;20496;-80
2022/06/24 04:53:23;;;;;;;20.67;8.68;;;18.20;99.90;;;;;;4933127;29;20106;-80
2022/06/24 04:55:50;;;;;;;22.65;9.10;;;18.20;99.90;;;;;;4933286;29;20024;-79
2022/06/24 04:58:15;;;;;;;32.42;10.45;;;18.30;99.90;;;;;;4932992;29;20030;-80
2022/06/24 05:00:41;;;;;;;23.52;9.18;;;18.40;99.90;;;;;;4931439;29;20023;-80
2022/06/24 05:03:07;;;;;;;20.58;8.70;;;18.40;99.90;;;;;;4932645;29;20046;-79
2022/06/24 05:05:32;;;;;;;19.02;8.35;;;18.20;99.90;;;;;;4932982;29;20404;-79
2022/06/24 05:07:58;;;;;;;16.20;6.93;;;18.20;99.90;;;;;;4932854;29;20043;-79
2022/06/24 05:10:24;;;;;;;22.27;7.35;;;18.10;99.90;;;;;;4932940;29;20095;-78
2022/06/24 05:12:49;;;;;;;18.25;6.93;;;18.10;99.90;;;;;;4932798;29;20114;-78
2022/06/24 05:15:15;;;;;;;15.30;6.60;;;18.10;99.90;;;;;;4932857;29;20023;-78
2022/06/24 05:17:40;;;;;;;16.55;5.93;;;18.00;99.90;;;;;;4932478;29;20086;-78
2022/06/24 05:20:07;;;;;;;19.73;6.30;;;17.90;99.90;;;;;;4932791;29;20035;-78
2022/06/24 05:22:33;;;;;;;17.33;6.32;;;18.00;99.90;;;;;;4932512;29;20118;-78
2022/06/24 05:24:59;;;;;;;20.33;6.25;;;18.00;99.90;;;;;;4932568;29;20051;-77
2022/06/24 05:27:25;;;;;;;14.98;5.55;;;17.90;99.90;;;;;;4932767;29;20078;-78
2022/06/24 05:29:50;;;;;;;18.30;5.55;;;17.90;99.90;;;;;;4933025;29;20106;-77
2022/06/24 05:32:16;;;;;;;16.23;5.57;;;17.90;99.90;;;;;;4932722;29;20027;-77
2022/06/24 05:34:42;;;;;;;17.27;5.60;;;17.90;99.90;;;;;;4932535;29;20056;-77
2022/06/24 05:37:07;;;;;;;15.80;5.25;;;17.90;99.90;;;;;;4932320;29;20023;-77
2022/06/24 05:39:33;;;;;;;15.07;5.40;;;17.90;99.90;;;;;;4928221;29;20056;-77
2022/06/24 05:41:59;;;;;;;21.13;5.50;;;17.90;99.90;;;;;;4931155;29;20575;-78
2022/06/24 05:44:24;;;;;;;14.98;4.28;;;17.90;99.90;;;;;;4932281;29;20095;-77
2022/06/24 05:46:51;;;;;;;14.57;4.60;;;17.90;99.90;;;;;;4932222;29;20024;-77
2022/06/24 05:49:17;;;;;;;13.77;4.03;;;17.90;99.90;;;;;;4932117;29;20058;-78
2022/06/24 05:51:43;;;;;;;12.15;3.67;;;18.00;99.90;;;;;;4936333;29;20103;-77
2022/06/24 05:56:52;;;;;;;10.93;3.60;;;18.10;99.90;;;;;;4936273;29;20095;-78
2022/06/24 05:59:18;;;;;;;12.93;3.60;;;18.20;99.90;;;;;;4936430;29;20028;-77
2022/06/24 06:01:44;;;;;;;10.25;3.22;;;18.20;99.90;;;;;;4935771;29;20035;-77
2022/06/24 06:04:09;;;;;;;10.93;3.33;;;18.20;99.90;;;;;;4935772;29;20039;-77
2022/06/24 06:06:35;;;;;;;14.38;3.65;;;18.30;99.90;;;;;;4935865;29;20028;-77
2022/06/24 06:09:01;;;;;;;13.57;3.63;;;18.40;99.90;;;;;;4935957;29;20055;-77
2022/06/24 06:11:27;;;;;;;10.25;3.42;;;18.40;99.90;;;;;;4935794;29;20020;-77
2022/06/24 06:13:54;;;;;;;12.88;3.53;;;18.40;99.90;;;;;;4936007;29;20067;-77
2022/06/24 06:16:21;;;;;;;14.32;3.35;;;18.50;99.90;;;;;;4935763;29;20024;-77
2022/06/24 06:18:48;;;;;;;10.82;4.05;;;18.60;99.90;;;;;;4935610;29;20593;-78
2022/06/24 06:21:15;;;;;;;9.50;2.90;;;18.60;99.90;;;;;;4935677;29;20451;-78
2022/06/24 06:23:41;;;;;;;12.40;3.17;;;18.70;99.90;;;;;;4935431;29;20499;-78
2022/06/24 06:26:09;;;;;;;13.35;3.22;;;18.80;99.90;;;;;;4935845;29;20048;-78
2022/06/24 06:28:35;;;;;;;7.72;3.30;;;18.90;99.90;;;;;;4935569;29;20087;-77
2022/06/24 06:31:01;;;;;;;13.82;3.50;;;19.10;99.90;;;;;;4935527;29;20144;-77
2022/06/24 06:33:27;;;;;;;15.07;4.07;;;19.10;99.90;;;;;;4935612;29;20039;-77
2022/06/24 06:36:00;;;;;;;13.70;4.10;;;19.10;99.90;;;;;;4935861;29;20028;-78
2022/06/24 06:38:26;;;;;;;12.10;3.47;;;19.10;99.90;;;;;;4935336;29;20035;-77
2022/06/24 06:40:51;;;;;;;10.10;3.30;;;19.00;99.90;;;;;;4929416;29;20280;-77
2022/06/24 06:43:17;;;;;;;9.95;3.38;;;18.90;99.90;;;;;;4935560;29;20066;-77
2022/06/24 06:45:43;;;;;;;12.80;3.97;;;18.80;99.90;;;;;;4934882;29;20026;-78
2022/06/24 06:48:08;;;;;;;9.80;3.40;;;18.80;99.90;;;;;;4935131;29;20416;-78
2022/06/24 06:50:34;;;;;;;12.32;3.35;;;18.90;99.90;;;;;;4915302;29;20586;-79
2022/06/24 06:53:00;;;;;;;11.32;3.53;;;19.00;99.90;;;;;;4923389;29;20023;-78
2022/06/24 06:55:25;;;;;;;11.52;3.47;;;19.10;99.90;;;;;;4925879;29;20110;-78
2022/06/24 06:57:51;;;;;;;11.95;3.47;;;19.20;99.90;;;;;;4934574;29;20031;-78
2022/06/24 07:00:17;;;;;;;14.77;4.63;;;19.30;99.90;;;;;;4934588;29;20030;-78
2022/06/24 07:02:43;;;;;;;10.45;3.92;;;19.40;99.90;;;;;;4934084;29;20043;-78
2022/06/24 07:05:09;;;;;;;12.25;3.95;;;19.50;99.90;;;;;;4932075;29;20031;-78
2022/06/24 07:07:35;;;;;;;11.20;4.00;;;19.60;99.90;;;;;;4934444;29;20488;-78
2022/06/24 07:10:01;;;;;;;14.23;3.50;;;19.60;99.90;;;;;;4934433;29;20031;-78
2022/06/24 07:12:27;;;;;;;14.50;3.70;;;19.60;99.90;;;;;;4934798;29;20491;-78
2022/06/24 07:14:53;;;;;;;13.90;4.13;;;19.70;99.90;;;;;;4934354;29;20382;-79
2022/06/24 07:17:19;;;;;;;12.15;3.85;;;19.80;99.90;;;;;;4934132;29;20043;-78
2022/06/24 07:19:46;;;;;;;12.40;3.72;;;19.80;99.90;;;;;;4934278;29;20031;-78
2022/06/24 07:22:12;;;;;;;10.93;3.50;;;20.00;99.90;;;;;;4933865;29;20035;-78
2022/06/24 07:24:38;;;;;;;11.32;3.30;;;19.90;99.90;;;;;;4934342;29;20039;-78
2022/06/24 07:27:09;;;;;;;10.05;3.15;;;19.90;99.90;;;;;;4932968;29;20087;-78
2022/06/24 07:29:35;;;;;;;17.63;3.45;;;19.90;99.90;;;;;;4934342;29;20449;-79
2022/06/24 07:32:06;;;;;;;11.40;3.38;;;20.00;99.90;;;;;;4934039;29;20159;-78
2022/06/24 07:34:32;;;;;;;12.85;2.67;;;20.10;99.90;;;;;;4933971;29;20445;-78
2022/06/24 07:37:02;;;;;;;10.40;2.80;;;20.20;99.90;;;;;;4933634;29;20035;-78
2022/06/24 07:39:29;;;;;;;11.13;3.20;;;20.10;99.90;;;;;;4930548;29;20022;-78
2022/06/24 07:41:55;;;;;;;12.45;3.13;;;20.20;99.90;;;;;;4932036;29;20050;-78
2022/06/24 07:44:21;;;;;;;11.30;2.90;;;20.10;99.90;;;;;;4934333;29;20473;-78
2022/06/24 07:46:47;;;;;;;10.70;2.65;;;20.10;99.90;;;;;;4934108;29;20024;-78
2022/06/24 07:49:13;;;;;;;10.27;2.67;;;20.10;99.90;;;;;;4933923;29;20373;-78
2022/06/24 07:51:39;;;;;;;14.15;2.97;;;20.20;99.90;;;;;;4933694;29;20023;-78
2022/06/24 07:54:10;;;;;;;13.63;2.95;;;20.10;99.90;;;;;;4933713;29;20090;-78
2022/06/24 07:59:21;;;;;;;10.30;2.75;;;20.00;99.90;;;;;;4933709;29;20083;-78
2022/06/24 08:01:47;;;;;;;12.70;3.50;;;19.90;99.90;;;;;;4933451;29;20023;-78
2022/06/24 08:04:14;;;;;;;11.63;3.00;;;20.00;99.90;;;;;;4933365;29;20572;-78
2022/06/24 08:06:45;;;;;;;17.48;3.00;;;20.10;99.90;;;;;;4933468;29;20102;-79
2022/06/24 08:09:11;;;;;;;9.73;2.60;;;20.10;99.90;;;;;;4933770;29;20066;-78
2022/06/24 08:11:36;;;;;;;11.73;3.30;;;20.20;99.90;;;;;;4933324;29;20045;-78
2022/06/24 08:14:02;;;;;;;14.20;3.28;;;20.30;99.90;;;;;;4932606;29;20046;-78
2022/06/24 08:16:28;;;;;;;11.32;2.88;;;20.40;99.90;;;;;;4932847;29;20067;-78
2022/06/24 08:18:54;;;;;;;13.27;2.97;;;20.30;99.90;;;;;;4933168;29;20027;-78
2022/06/24 08:21:21;;;;;;;17.15;2.97;;;20.40;99.90;;;;;;4933412;29;20067;-78
2022/06/24 08:23:47;;;;;;;7.25;2.25;;;20.30;99.90;;;;;;4933149;29;20031;-78
2022/06/24 08:26:12;;;;;;;13.05;3.00;;;20.30;99.90;;;;;;4933406;29;20031;-78
2022/06/24 08:28:38;;;;;;;15.00;2.45;;;20.40;99.90;;;;;;4933040;29;20090;-79
2022/06/24 08:31:04;;;;;;;10.82;2.75;;;20.20;99.90;;;;;;4932973;29;20066;-78
2022/06/24 08:33:29;;;;;;;12.18;2.60;;;20.30;99.90;;;;;;4932921;29;20078;-78
2022/06/24 08:35:55;;;;;;;11.25;2.67;;;20.40;99.90;;;;;;4932805;29;20067;-79
2022/06/24 08:38:21;;;;;;;15.77;3.05;;;20.40;99.90;;;;;;4932879;29;20028;-78
2022/06/24 08:40:48;;;;;;;20.35;3.40;;;20.30;99.90;;;;;;4927558;29;20043;-79
2022/06/24 08:43:14;;;;;;;14.60;2.88;;;20.30;99.90;;;;;;4933162;29;20074;-79
2022/06/24 08:45:40;;;;;;;14.32;3.08;;;20.40;99.90;;;;;;4933152;29;20024;-79
2022/06/24 08:48:10;;;;;;;10.25;2.83;;;20.80;99.90;;;;;;4932529;29;20516;-79
2022/06/24 08:50:36;;;;;;;9.93;2.58;;;21.10;99.90;;;;;;4927443;29;20054;-79
2022/06/24 08:53:09;;;;;;;14.88;3.10;;;21.30;99.90;;;;;;4932424;29;20024;-80
2022/06/24 08:55:40;;;;;;;8.75;2.10;;;21.20;99.90;;;;;;4932621;29;20032;-80
2022/06/24 08:58:11;;;;;;;10.20;2.50;;;20.90;99.90;;;;;;4932529;29;20034;-80
2022/06/24 09:00:38;;;;;;;6.80;2.28;;;20.70;99.90;;;;;;4932651;29;20103;-80
2022/06/24 09:03:05;;;;;;;9.43;2.42;;;20.80;99.90;;;;;;4932162;29;20509;-81
2022/06/24 09:05:31;;;;;;;8.05;2.35;;;21.10;99.90;;;;;;4932615;29;20032;-80
2022/06/24 09:08:11;;;;;;;7.32;2.38;;;21.10;99.90;;;;;;4931057;29;20023;-80
2022/06/24 09:10:39;;;;;;;9.20;2.58;;;21.20;99.90;;;;;;4932386;29;20437;-80
2022/06/24 09:13:05;;;;;;;10.38;2.55;;;21.00;99.90;;;;;;4932012;29;20388;-80
2022/06/24 09:15:32;;;;;;;18.85;3.47;;;20.90;99.90;;;;;;4932217;29;20024;-79
2022/06/24 09:17:59;;;;;;;10.20;2.92;;;21.00;99.90;;;;;;4932105;29;20603;-80
2022/06/24 09:20:30;;;;;;;9.93;2.60;;;21.00;99.90;;;;;;4932510;29;20342;-80
2022/06/24 09:23:04;;;;;;;7.03;2.33;;;21.10;99.90;;;;;;4932042;29;20043;-80
2022/06/24 09:25:52;;;;;;;6.93;2.10;;;21.20;99.90;;;;;;4931939;29;20016;-80
2022/06/24 09:28:27;;;;;;;8.95;2.47;;;21.20;99.90;;;;;;4927000;29;20034;-80
2022/06/24 09:31:01;;;;;;;11.63;2.75;;;21.00;99.90;;;;;;4927775;29;20134;-79
2022/06/24 09:33:26;;;;;;;8.95;3.17;;;20.90;99.90;;;;;;4932003;29;20342;-79
2022/06/24 09:36:03;;;;;;;7.97;2.60;;;20.70;99.90;;;;;;4930697;29;20423;-79
2022/06/24 09:38:29;;;;;;;5.78;2.45;;;20.60;99.90;;;;;;4931850;29;20024;-79
2022/06/24 09:41:06;;;;;;;10.93;2.65;;;20.80;99.90;;;;;;4926648;29;20421;-79
2022/06/24 09:43:32;;;;;;;7.35;2.45;;;21.00;99.90;;;;;;4932142;29;20095;-80
2022/06/24 09:45:59;;;;;;;8.73;2.60;;;21.00;99.90;;;;;;4931813;29;20027;-80
2022/06/24 09:48:32;;;;;;;10.45;2.80;;;21.10;99.90;;;;;;4931414;29;20054;-80
2022/06/24 09:51:06;;;;;;;10.98;2.78;;;21.00;99.90;;;;;;4931590;29;20028;-79
2022/06/24 09:53:37;;;;;;;12.38;3.28;;;20.90;99.90;;;;;;4932065;29;20011;-81
2022/06/24 09:56:07;;;;;;;10.32;2.85;;;20.70;99.90;;;;;;4932020;29;20126;-79
2022/06/24 09:58:34;;;;;;;18.13;3.22;;;20.80;99.90;;;;;;4932135;29;20051;-79
2022/06/24 10:01:00;;;;;;;8.30;3.22;;;21.10;99.90;;;;;;4931819;29;20123;-80
2022/06/24 10:03:27;;;;;;;8.32;2.38;;;21.40;99.90;;;;;;4931889;29;20476;-80
2022/06/24 10:05:59;;;;;;;11.32;3.20;;;21.50;99.90;;;;;;4931922;29;20090;-79
2022/06/24 10:08:32;;;;;;;12.20;2.95;;;21.40;99.90;;;;;;4931535;29;20504;-79
2022/06/24 10:10:59;;;;;;;9.77;3.00;;;20.80;99.90;;;;;;4926225;29;20047;-79
2022/06/24 10:13:32;;;;;;;20.60;4.15;;;20.40;99.90;;;;;;4931962;29;20034;-81
2022/06/24 10:16:01;;;;;;;15.10;4.65;;;20.10;99.90;;;;;;4930534;29;20389;-84
2022/06/24 10:18:35;;;;;;;15.45;4.70;;;19.40;99.90;;;;;;4931626;29;20094;-87
2022/06/24 10:21:04;;;;;;;16.60;4.13;;;18.90;99.90;;;;;;4934251;29;20047;-84
2022/06/24 10:23:50;;;;;;;14.68;4.63;;;18.60;99.90;;;;;;4931543;29;20039;-81
2022/06/24 10:26:30;;;;;;;16.60;4.28;;;18.50;99.90;;;;;;4926712;29;20714;-81
2022/06/24 10:29:04;;;;;;;20.92;5.90;;;18.50;99.90;;;;;;4931814;29;20082;-81
2022/06/24 10:31:41;;;;;;;23.67;5.90;;;18.70;99.90;;;;;;4926070;29;20183;-81
2022/06/24 10:34:08;;;;;;;26.65;5.82;;;18.90;99.90;;;;;;4931395;29;20374;-80
2022/06/24 10:36:34;;;;;;;16.40;4.05;;;19.00;99.90;;;;;;4933283;29;20027;-80
2022/06/24 10:39:16;;;;;;;10.93;3.70;;;19.20;99.90;;;;;;4935155;29;20535;-80
2022/06/24 10:41:42;;;;;;;11.68;4.00;;;19.30;99.90;;;;;;4931721;29;20020;-81
2022/06/24 10:44:27;;;;;;;14.82;3.63;;;19.40;99.90;;;;;;4935077;29;20925;-80
2022/06/24 10:47:05;;;;;;;14.95;3.70;;;19.30;99.90;;;;;;4935073;29;20031;-80
2022/06/24 10:49:52;;;;;;;11.05;3.38;;;19.70;99.90;;;;;;4934741;29;20047;-81
2022/06/24 10:52:32;;;;;;;14.65;2.95;;;20.10;99.90;;;;;;4931037;29;20024;-80
2022/06/24 10:55:16;;;;;;;13.43;2.38;;;20.20;99.90;;;;;;4935246;29;20266;-81
2022/06/24 10:57:55;;;;;;;11.38;3.00;;;20.20;99.90;;;;;;4935117;29;20150;-80
2022/06/24 11:00:25;;;;;;;17.00;2.55;;;20.30;99.90;;;;;;4929672;29;20036;-81
2022/06/24 11:02:53;;;;;;;14.88;2.63;;;20.50;99.90;;;;;;4934234;29;20489;-81
2022/06/24 11:05:29;;;;;;;17.55;3.03;;;20.90;99.90;;;;;;4931595;29;20087;-81
2022/06/24 11:07:55;;;;;;;13.35;2.88;;;21.20;99.90;;;;;;4933331;29;20195;-81
2022/06/24 11:10:29;;;;;;;18.23;2.53;;;21.30;99.90;;;;;;4934987;29;20031;-81
2022/06/24 11:12:59;;;;;;;10.80;2.47;;;21.20;99.90;;;;;;4934476;29;20041;-81
2022/06/24 11:15:39;;;;;;;10.70;2.03;;;21.30;99.90;;;;;;4934426;29;20500;-81
2022/06/24 11:18:11;;;;;;;8.85;1.90;;;21.00;99.90;;;;;;4933921;29;20028;-81
2022/06/24 11:20:42;;;;;;;13.98;2.20;;;21.20;99.90;;;;;;4933115;29;20075;-80
2022/06/24 11:23:12;;;;;;;11.60;2.25;;;21.10;99.90;;;;;;4934253;29;20293;-80
2022/06/24 11:25:40;;;;;;;11.07;1.67;;;21.30;99.90;;;;;;4934318;29;20433;-80
2022/06/24 11:28:20;;;;;;;7.95;1.75;;;21.30;99.90;;;;;;4934448;29;20078;-80
2022/06/24 11:30:46;;;;;;;11.82;1.85;;;21.00;99.90;;;;;;4934171;29;20060;-80
2022/06/24 11:33:12;;;;;;;9.32;1.60;;;21.20;99.90;;;;;;4932908;29;20063;-80
2022/06/24 11:35:38;;;;;;;10.65;1.42;;;21.10;99.90;;;;;;4934008;29;20039;-80
2022/06/24 11:38:08;;;;;;;8.77;1.48;;;21.10;99.90;;;;;;4927921;29;20621;-80
2022/06/24 11:40:34;;;;;;;9.05;1.30;;;21.30;99.90;;;;;;4928300;29;20024;-80
2022/06/24 11:43:09;;;;;;;6.30;1.23;;;21.40;99.90;;;;;;4933927;29;20497;-80
2022/06/24 11:45:40;;;;;;;10.52;1.92;;;21.30;99.90;;;;;;4932555;29;20044;-80
2022/06/24 11:48:07;;;;;;;10.75;1.35;;;21.00;99.90;;;;;;4933511;29;20048;-80
2022/06/24 11:50:34;;;;;;;7.80;1.10;;;21.10;99.90;;;;;;4933738;29;20031;-79
2022/06/24 11:53:00;;;;;;;7.38;1.10;;;21.10;99.90;;;;;;4933250;29;20047;-79
2022/06/24 11:55:34;;;;;;;7.63;1.45;;;21.00;99.90;;;;;;4933833;29;20030;-79
2022/06/24 11:58:01;;;;;;;;;;;21.20;99.90;;;;;;4933872;29;20040;-79
2022/06/24 12:00:32;;;;;;;10.77;1.02;;;21.20;99.90;;;;;;4933919;29;19954;-79
2022/06/24 12:02:59;;;;;;;7.13;1.80;;;21.00;99.90;;;;;;4933581;29;20385;-79
2022/06/24 12:05:28;;;;;;;9.82;1.30;;;21.20;99.90;;;;;;4933637;29;20028;-81
2022/06/24 12:07:55;;;;;;;7.50;1.73;;;21.20;99.90;;;;;;4933594;29;20512;-78
2022/06/24 12:10:21;;;;;;;6.00;1.40;;;21.40;99.90;;;;;;4933275;29;20023;-78
2022/06/24 12:12:59;;;;;;;9.43;1.70;;;21.50;99.90;;;;;;4933196;29;20028;-79
2022/06/24 12:15:45;;;;;;;9.38;1.33;;;21.60;99.90;;;;;;4931941;29;20028;-78
2022/06/24 12:18:15;;;;;;;7.10;1.10;;;21.60;99.90;;;;;;4925607;29;20509;-78
2022/06/24 12:20:41;;;;;;;7.32;1.33;;;22.10;99.90;;;;;;4933063;29;20016;-78
2022/06/24 12:23:15;;;;;;;7.15;1.50;;;22.30;99.90;;;;;;4933116;29;20082;-78
2022/06/24 12:25:42;;;;;;;7.82;1.33;;;21.90;99.90;;;;;;4932684;29;20067;-79
2022/06/24 12:28:19;;;;;;;10.75;1.27;;;21.70;99.90;;;;;;4933117;29;20035;-79
2022/06/24 12:31:00;;;;;;;9.88;1.40;;;21.50;99.90;;;;;;4931518;29;20050;-79
2022/06/24 12:33:27;;;;;;;6.85;1.23;;;21.60;99.90;;;;;;4932976;29;20039;-78
2022/06/24 12:36:09;;;;;;;8.88;1.10;;;21.60;99.90;;;;;;4932978;29;20039;-79
2022/06/24 12:38:39;;;;;;;11.40;1.75;;;22.00;99.90;;;;;;4932901;29;20028;-79
2022/06/24 12:41:14;;;;;;;6.57;1.20;;;22.40;99.90;;;;;;4927164;29;20027;-78
2022/06/24 12:43:54;;;;;;;11.15;1.75;;;22.80;99.90;;;;;;4932818;29;20039;-78
2022/06/24 12:46:22;;;;;;;9.05;1.40;;;23.10;99.90;;;;;;4932523;29;20095;-78
2022/06/24 12:51:42;;;;;;;9.65;1.38;;;22.80;99.90;;;;;;4932579;29;20452;-79
2022/06/24 12:54:08;;;;;;;8.38;1.70;;;22.90;99.90;;;;;;4932768;29;20034;-79
2022/06/24 12:56:35;;;;;;;12.30;1.85;;;22.90;99.90;;;;;;4932535;29;20047;-79